createdAt,value
2019-05-09T00:01:07.838Z,57.39
2019-05-09T00:06:13.579Z,57.48
2019-05-09T00:11:17.577Z,57.48
2019-05-09T00:16:23.512Z,57.86
2019-05-09T00:21:39.328Z,57.86
2019-05-09T00:26:44.356Z,57.85
2019-05-09T00:32:04.888Z,58.14
2019-05-09T00:37:08.880Z,58.14
2019-05-09T00:42:13.737Z,58.35
2019-05-09T00:47:25.104Z,58.53
2019-05-09T00:52:29.123Z,58.92
2019-05-09T00:57:36.098Z,58.94
2019-05-09T01:02:40.198Z,58.78
2019-05-09T01:07:44.222Z,59.13
2019-05-09T01:12:48.215Z,59.17
2019-05-09T01:17:53.649Z,59.28
2019-05-09T01:22:57.811Z,58.95
2019-05-09T01:28:03.287Z,59.03
2019-05-09T01:33:33.279Z,59.30
2019-05-09T01:38:37.415Z,59.17
2019-05-09T01:43:41.458Z,59.57
2019-05-09T01:48:45.539Z,59.18
2019-05-09T01:53:53.231Z,59.62
2019-05-09T01:58:57.413Z,59.06
2019-05-09T02:04:01.480Z,59.06
2019-05-09T02:09:07.013Z,59.13
2019-05-09T02:14:13.468Z,59.53
2019-05-09T02:19:24.113Z,59.55
2019-05-09T02:24:28.382Z,59.84
2019-05-09T02:29:33.747Z,59.76
2019-05-09T02:34:37.846Z,59.56
2019-05-09T02:39:41.860Z,59.62
2019-05-09T02:44:48.974Z,59.62
2019-05-09T02:49:51.811Z,59.94
2019-05-09T02:54:58.360Z,59.94
2019-05-09T03:00:10.262Z,59.88
2019-05-09T03:05:14.392Z,60.01
2019-05-09T03:10:19.349Z,60.45
2019-05-09T03:15:23.610Z,60.36
2019-05-09T03:20:49.659Z,60.51
2019-05-09T03:25:53.747Z,60.49
2019-05-09T03:30:59.473Z,60.24
2019-05-09T03:36:03.715Z,60.21
2019-05-09T03:41:08.630Z,60.96
2019-05-09T03:46:27.897Z,60.59
2019-05-09T03:51:31.259Z,60.59
2019-05-09T03:56:39.630Z,60.08
2019-05-09T04:01:46.768Z,60.12
2019-05-09T04:06:49.446Z,60.18
2019-05-09T04:11:53.481Z,60.45
2019-05-09T04:16:57.688Z,60.10
2019-05-09T04:22:02.349Z,60.42
2019-05-09T04:27:10.919Z,60.20
2019-05-09T04:32:14.949Z,59.91
2019-05-09T04:37:18.957Z,59.69
2019-05-09T04:42:22.992Z,60.10
2019-05-09T04:47:27.828Z,60.10
2019-05-09T04:52:31.949Z,59.80
2019-05-09T04:57:38.147Z,59.91
2019-05-09T05:02:45.274Z,59.90
2019-05-09T05:07:49.308Z,59.52
2019-05-09T05:12:53.334Z,59.71
2019-05-09T05:17:58.285Z,59.71
2019-05-09T05:23:21.225Z,59.49
2019-05-09T05:28:25.236Z,59.49
2019-05-09T05:33:41.791Z,59.67
2019-05-09T05:38:47.987Z,59.67
2019-05-09T05:43:51.757Z,59.83
2019-05-09T05:48:57.756Z,59.28
2019-05-09T05:54:02.173Z,59.17
2019-05-09T05:59:08.395Z,59.56
2019-05-09T06:04:11.929Z,59.54
2019-05-09T06:09:18.673Z,59.04
2019-05-09T06:14:21.718Z,59.23
2019-05-09T06:19:28.425Z,59.41
2019-05-09T06:24:31.570Z,59.52
2019-05-09T06:29:35.597Z,59.52
2019-05-09T06:34:42.127Z,58.82
2019-05-09T06:39:45.599Z,58.87
2019-05-09T06:45:02.028Z,58.97
2019-05-09T06:50:08.990Z,58.97
2019-05-09T06:55:13.326Z,59.29
2019-05-09T07:00:28.317Z,59.02
2019-05-09T07:05:57.570Z,58.97
2019-05-09T07:11:01.752Z,58.70
2019-05-09T07:16:05.955Z,59.10
2019-05-09T07:21:10.154Z,58.26
2019-05-09T07:26:17.865Z,60.42
2019-05-09T07:31:44.687Z,60.13
2019-05-09T07:36:48.673Z,58.88
2019-05-09T07:41:52.667Z,58.56
2019-05-09T07:47:04.777Z,58.79
2019-05-09T07:52:10.333Z,58.25
2019-05-09T07:57:14.759Z,58.52
2019-05-09T08:02:18.850Z,58.05
2019-05-09T08:07:22.942Z,57.68
2019-05-09T08:12:28.438Z,55.97
2019-05-09T08:17:32.650Z,55.79
2019-05-09T08:22:40.973Z,54.85
2019-05-09T08:27:42.383Z,55.54
2019-05-09T08:32:48.290Z,55.54
2019-05-09T08:37:52.197Z,56.87
2019-05-09T08:42:58.508Z,58.40
2019-05-09T08:48:01.984Z,58.40
2019-05-09T08:53:08.256Z,57.75
2019-05-09T08:58:11.823Z,57.49
2019-05-09T09:03:18.347Z,58.13
2019-05-09T09:08:21.653Z,58.03
2019-05-09T09:13:25.723Z,58.53
2019-05-09T09:18:29.731Z,58.43
2019-05-09T09:23:43.941Z,58.83
2019-05-09T09:28:39.623Z,59.34
2019-05-09T09:33:43.638Z,59.34
2019-05-09T09:38:48.206Z,60.09
2019-05-09T09:43:52.436Z,60.33
2019-05-09T09:48:58.575Z,59.88
2019-05-09T09:54:02.411Z,59.81
2019-05-09T09:59:24.555Z,59.81
2019-05-09T10:04:28.780Z,60.10
2019-05-09T10:09:32.935Z,60.12
2019-05-09T10:14:40.264Z,60.12
2019-05-09T10:19:52.266Z,59.75
2019-05-09T10:24:58.579Z,59.74
2019-05-09T10:30:02.105Z,59.80
2019-05-09T10:35:08.736Z,59.80
2019-05-09T10:40:15.707Z,59.51
2019-05-09T10:45:39.992Z,59.84
2019-05-09T10:50:44.539Z,59.63
2019-05-09T10:55:48.105Z,59.63
2019-05-09T11:00:52.188Z,59.58
2019-05-09T11:05:57.980Z,59.95
2019-05-09T11:11:05.701Z,59.54
2019-05-09T11:16:07.844Z,59.06
2019-05-09T11:21:11.931Z,59.06
2019-05-09T11:26:17.905Z,59.19
2019-05-09T11:31:21.966Z,59.19
2019-05-09T11:36:26.182Z,59.46
2019-05-09T11:41:30.509Z,59.21
2019-05-09T11:46:34.621Z,59.42
2019-05-09T11:51:38.774Z,59.19
2019-05-09T11:56:42.779Z,59.60
2019-05-09T12:01:48.274Z,59.60
2019-05-09T12:06:52.457Z,59.57
2019-05-09T12:11:58.807Z,59.47
2019-05-09T12:17:02.198Z,59.91
2019-05-09T12:22:08.710Z,61.14
2019-05-09T12:27:12.036Z,61.14
2019-05-09T12:32:18.425Z,61.16
2019-05-09T12:37:21.733Z,61.70
2019-05-09T12:42:28.681Z,60.83
2019-05-09T12:47:31.596Z,61.20
2019-05-09T12:52:35.690Z,61.46
2019-05-09T12:57:39.743Z,61.46
2019-05-09T13:02:43.860Z,61.54
2019-05-09T13:07:48.269Z,61.91
2019-05-09T13:12:52.390Z,61.91
2019-05-09T13:17:58.060Z,61.70
2019-05-09T13:23:02.066Z,61.84
2019-05-09T13:28:08.233Z,61.85
2019-05-09T13:33:11.854Z,62.41
2019-05-09T13:38:17.908Z,62.58
2019-05-09T13:43:21.763Z,62.58
2019-05-09T13:48:37.876Z,62.56
2019-05-09T13:53:31.474Z,62.56
2019-05-09T13:58:35.552Z,62.96
2019-05-09T14:03:39.546Z,62.96
2019-05-09T14:08:43.576Z,62.87
2019-05-09T14:13:48.779Z,62.89
2019-05-09T14:18:55.539Z,62.89
2019-05-09T14:24:10.818Z,63.05
2019-05-09T14:29:05.694Z,62.63
2019-05-09T14:34:09.797Z,62.70
2019-05-09T14:39:13.815Z,62.89
2019-05-09T14:44:18.294Z,62.40
2019-05-09T14:49:22.407Z,62.25
2019-05-09T14:54:28.834Z,61.54
2019-05-09T14:59:32.131Z,61.40
2019-05-09T15:04:38.570Z,60.62
2019-05-09T15:09:41.895Z,60.78
2019-05-09T15:14:47.986Z,60.39
2019-05-09T15:19:59.666Z,60.39
2019-05-09T15:24:59.070Z,60.07
2019-05-09T15:30:03.449Z,59.98
2019-05-09T15:35:08.989Z,60.28
2019-05-09T15:40:13.689Z,60.09
2019-05-09T15:45:18.444Z,60.56
2019-05-09T15:50:23.463Z,60.08
2019-05-09T15:55:28.282Z,60.39
2019-05-09T16:00:32.569Z,60.39
2019-05-09T16:05:38.536Z,60.48
2019-05-09T16:10:42.729Z,59.65
2019-05-09T16:15:48.649Z,59.66
2019-05-09T16:20:52.549Z,59.45
2019-05-09T16:25:58.591Z,59.45
2019-05-09T16:31:02.366Z,58.50
2019-05-09T16:36:06.384Z,58.50
2019-05-09T16:41:10.465Z,58.16
2019-05-09T16:46:14.622Z,58.83
2019-05-09T16:51:18.625Z,58.83
2019-05-09T16:56:22.735Z,59.17
2019-05-09T17:01:28.422Z,57.70
2019-05-09T17:06:32.577Z,57.88
2019-05-09T17:11:36.667Z,57.88
2019-05-09T17:16:40.661Z,57.65
2019-05-09T17:21:59.439Z,57.53
2019-05-09T17:27:03.429Z,57.53
2019-05-09T17:32:07.850Z,57.12
2019-05-09T17:37:12.007Z,57.12
2019-05-09T17:42:18.115Z,57.56
2019-05-09T17:47:21.944Z,57.51
2019-05-09T17:52:26.030Z,57.34
2019-05-09T17:57:30.060Z,56.14
2019-05-09T18:02:34.125Z,56.14
2019-05-09T18:07:38.262Z,57.16
2019-05-09T18:12:42.415Z,57.08
2019-05-09T18:17:47.865Z,55.85
2019-05-09T18:22:52.205Z,56.72
2019-05-09T18:27:57.461Z,56.36
2019-05-09T18:33:20.100Z,56.79
2019-05-09T18:38:30.797Z,56.79
2019-05-09T18:43:34.795Z,57.21
2019-05-09T18:48:38.793Z,57.09
2019-05-09T18:53:42.849Z,57.63
2019-05-09T18:58:46.907Z,57.63
2019-05-09T19:03:50.901Z,57.91
2019-05-09T19:08:54.889Z,58.35
2019-05-09T19:13:59.365Z,58.41
2019-05-09T19:19:16.585Z,58.07
2019-05-09T19:24:20.736Z,58.07
2019-05-09T19:29:24.909Z,58.27
2019-05-09T19:34:28.903Z,58.23
2019-05-09T19:39:32.922Z,58.86
2019-05-09T19:44:37.041Z,58.78
2019-05-09T19:49:41.051Z,58.92
2019-05-09T19:54:45.148Z,59.17
2019-05-09T19:59:49.137Z,59.17
2019-05-09T20:04:55.180Z,59.01
2019-05-09T20:10:12.877Z,58.88
2019-05-09T20:15:18.814Z,59.37
2019-05-09T20:20:22.907Z,59.30
2019-05-09T20:25:27.004Z,58.97
2019-05-09T20:30:30.989Z,59.20
2019-05-09T20:35:34.996Z,59.46
2019-05-09T20:40:39.384Z,59.44
2019-05-09T20:45:43.684Z,59.34
2019-05-09T20:50:47.876Z,59.82
2019-05-09T20:55:52.095Z,59.82
2019-05-09T21:00:56.362Z,59.62
2019-05-09T21:06:00.561Z,59.75
2019-05-09T21:11:04.884Z,59.75
2019-05-09T21:16:09.171Z,60.16
2019-05-09T21:21:13.428Z,60.11
2019-05-09T21:26:17.752Z,59.72
2019-05-09T21:31:21.962Z,59.81
2019-05-09T21:36:25.989Z,59.91
2019-05-09T21:41:30.070Z,59.77
2019-05-09T21:46:34.068Z,59.65
2019-05-09T21:51:38.098Z,59.60
2019-05-09T21:56:42.119Z,60.40
2019-05-09T22:01:47.210Z,59.64
2019-05-09T22:06:51.367Z,60.07
2019-05-09T22:11:55.444Z,60.18
2019-05-09T22:17:02.584Z,60.26
2019-05-09T22:22:06.675Z,60.44
2019-05-09T22:27:10.703Z,60.62
2019-05-09T22:32:14.862Z,60.56
2019-05-09T22:37:18.856Z,60.56
2019-05-09T22:42:23.041Z,60.24
2019-05-09T22:47:27.107Z,60.52
2019-05-09T22:52:31.136Z,60.63
2019-05-09T22:57:35.146Z,60.63
2019-05-09T23:02:39.219Z,60.38
2019-05-09T23:07:43.233Z,60.82
2019-05-09T23:12:47.267Z,60.54
2019-05-09T23:17:51.270Z,60.85
2019-05-09T23:22:55.245Z,60.85
2019-05-09T23:27:59.230Z,60.83
2019-05-09T23:33:03.217Z,60.83
2019-05-09T23:38:07.318Z,60.72
2019-05-09T23:43:11.308Z,60.76
2019-05-09T23:48:15.387Z,60.83
2019-05-09T23:53:31.707Z,60.83
2019-05-09T23:58:53.479Z,60.70
